Time;durP1;ratioP1;P1;durP2;ratioP2;P2;SDS_P1;SDS_P2;PMS_P1;PMS_P2;Temp;Humidity;BMP_temperature;BMP_pressure;BME280_temperature;BME280_humidity;BME280_pressure;Samples;Min_cycle;Max_cycle;Signal;HPM_P1;HPM_P2
2023/12/08 00:02:14;;;;;;;192.77;87.22;;;;;;;2.43;100.00;100769.41;4978006;28;20030;-78
2023/12/08 00:04:40;;;;;;;178.50;78.78;;;;;;;2.50;100.00;100774.13;4977733;28;20428;-76
2023/12/08 00:07:05;;;;;;;178.90;77.90;;;;;;;2.50;100.00;100779.75;4976736;28;20030;-78
2023/12/08 00:09:31;;;;;;;180.10;78.10;;;;;;;2.46;100.00;100764.94;4976351;28;20060;-76
2023/12/08 00:11:57;;;;;;;192.75;83.07;;;;;;;2.47;100.00;100764.50;4976164;28;20055;-77
2023/12/08 00:14:29;;;;;;;189.85;81.93;;;;;;;2.46;100.00;100762.09;4976191;28;20023;-78
2023/12/08 00:16:55;;;;;;;183.38;83.75;;;;;;;2.45;100.00;100761.31;4976236;28;20027;-77
2023/12/08 00:19:21;;;;;;;175.60;76.70;;;;;;;2.40;100.00;100758.16;4976157;28;20037;-77
2023/12/08 00:21:50;;;;;;;172.23;74.30;;;;;;;2.44;100.00;100764.56;4991072;28;20042;-77
2023/12/08 00:24:15;;;;;;;183.57;80.13;;;;;;;2.39;100.00;100759.41;4974995;28;20046;-76
2023/12/08 00:26:41;;;;;;;177.38;82.88;;;;;;;2.38;100.00;100769.88;4976044;28;20034;-77
2023/12/08 00:29:06;;;;;;;173.00;76.47;;;;;;;2.30;100.00;100749.44;4976110;28;20030;-77
2023/12/08 00:31:34;;;;;;;178.13;74.60;;;;;;;2.34;100.00;100755.81;4975844;28;20054;-78
2023/12/08 00:33:59;;;;;;;176.75;79.57;;;;;;;2.38;100.00;100755.78;4976013;28;20449;-77
2023/12/08 00:36:25;;;;;;;175.05;76.13;;;;;;;2.32;100.00;100747.00;4990850;28;20058;-77
2023/12/08 00:38:51;;;;;;;185.32;77.40;;;;;;;2.37;100.00;100753.38;4976137;28;20080;-75
2023/12/08 00:41:17;;;;;;;171.38;73.82;;;;;;;2.37;100.00;100747.75;4976979;28;20452;-76
2023/12/08 00:43:44;;;;;;;164.25;70.47;;;;;;;2.35;100.00;100748.16;4977203;28;20070;-77
2023/12/08 00:46:10;;;;;;;169.93;71.18;;;;;;;2.33;100.00;100742.97;4977081;28;20163;-78
2023/12/08 00:48:36;;;;;;;169.73;73.93;;;;;;;2.34;100.00;100747.34;4991809;28;20109;-77
2023/12/08 00:51:04;;;;;;;166.95;73.25;;;;;;;2.38;100.00;100752.16;4977108;28;20027;-77
2023/12/08 00:53:30;;;;;;;163.35;70.30;;;;;;;2.38;100.00;100752.16;4975533;28;20027;-77
2023/12/08 00:55:57;;;;;;;172.02;74.80;;;;;;;2.34;100.00;100738.91;4991867;28;20070;-78
2023/12/08 00:58:23;;;;;;;180.02;76.15;;;;;;;2.32;100.00;100749.03;4976857;28;20041;-77
2023/12/08 01:00:50;;;;;;;173.80;72.82;;;;;;;2.32;100.00;100760.31;4976807;28;20460;-77
2023/12/08 01:03:15;;;;;;;177.45;76.30;;;;;;;2.33;100.00;100765.53;4976850;28;20038;-76
2023/12/08 01:05:42;;;;;;;170.18;75.15;;;;;;;2.39;100.00;100771.47;4975953;28;20035;-77
2023/12/08 01:08:09;;;;;;;179.02;74.28;;;;;;;2.30;100.00;100760.72;4976565;28;20046;-77
2023/12/08 01:10:36;;;;;;;184.60;74.65;;;;;;;2.36;100.00;100769.50;4976177;28;20109;-77
2023/12/08 01:13:03;;;;;;;172.80;71.47;;;;;;;2.33;100.00;100768.34;4976395;28;20030;-76
2023/12/08 01:15:29;;;;;;;163.20;69.70;;;;;;;2.32;100.00;100769.56;4976440;28;20033;-77
2023/12/08 01:17:55;;;;;;;168.13;70.05;;;;;;;2.30;100.00;100772.00;4976386;28;20035;-78
2023/12/08 01:20:21;;;;;;;170.40;71.85;;;;;;;2.30;100.00;100760.72;4977186;28;20093;-77
2023/12/08 01:22:46;;;;;;;183.88;73.00;;;;;;;2.28;100.00;100768.03;4978363;28;20082;-78
2023/12/08 01:25:12;;;;;;;163.70;70.10;;;;;;;2.25;100.00;100768.84;4979413;28;20026;-76
2023/12/08 01:27:38;;;;;;;168.90;66.85;;;;;;;2.17;100.00;100754.06;4995765;28;20506;-79
2023/12/08 01:30:05;;;;;;;170.98;71.45;;;;;;;2.17;100.00;100761.72;4993294;28;20023;-77
2023/12/08 01:32:30;;;;;;;155.40;69.53;;;;;;;2.04;100.00;100761.50;4993096;28;20066;-76
2023/12/08 01:34:57;;;;;;;173.02;67.18;;;;;;;1.96;100.00;100762.81;4976420;28;20059;-76
2023/12/08 01:37:22;;;;;;;165.77;68.22;;;;;;;1.88;100.00;100756.47;4976662;28;20178;-77
2023/12/08 01:39:49;;;;;;;162.40;65.90;;;;;;;1.80;100.00;100751.34;4974775;28;20512;-76
2023/12/08 01:42:15;;;;;;;184.63;71.65;;;;;;;1.70;100.00;100755.13;4976219;28;20472;-76
2023/12/08 01:44:41;;;;;;;174.32;70.07;;;;;;;1.64;100.00;100751.97;4976165;28;20027;-76
2023/12/08 01:47:07;;;;;;;168.48;71.95;;;;;;;1.60;100.00;100750.41;4975639;28;20037;-76
2023/12/08 01:49:39;;;;;;;170.38;69.72;;;;;;;1.56;100.00;100744.78;4975077;28;20034;-76
2023/12/08 01:52:05;;;;;;;;;;;;;;;1.54;100.00;100743.63;4975792;28;20062;-76
2023/12/08 01:54:32;;;;;;;179.40;69.40;;;;;;;1.52;100.00;100746.88;4975206;28;19910;-77
2023/12/08 01:57:05;;;;;;;181.40;71.85;;;;;;;1.55;100.00;100734.78;4973697;28;20117;-76
2023/12/08 01:59:33;;;;;;;182.88;72.80;;;;;;;1.59;100.00;100738.34;4974599;28;20041;-76
2023/12/08 02:02:04;;;;;;;185.07;73.78;;;;;;;1.63;100.00;100736.28;4989134;28;20026;-76
2023/12/08 02:04:40;;;;;;;178.40;69.70;;;;;;;1.61;100.00;100730.25;4974197;28;20069;-76
2023/12/08 02:07:11;;;;;;;185.73;71.82;;;;;;;1.75;100.00;100727.25;4974201;28;20039;-76
2023/12/08 02:09:37;;;;;;;186.75;73.22;;;;;;;1.75;100.00;100727.25;4974159;28;20027;-78
2023/12/08 02:12:04;;;;;;;182.80;69.90;;;;;;;1.76;100.00;100716.78;4973483;28;20470;-77
2023/12/08 02:14:37;;;;;;;186.10;71.57;;;;;;;1.80;100.00;100718.34;4974453;28;20423;-76
2023/12/08 02:17:12;;;;;;;208.70;74.75;;;;;;;1.80;100.00;100712.69;4973309;28;20062;-77
2023/12/08 02:19:52;;;;;;;189.57;70.88;;;;;;;1.85;100.00;100717.06;4972699;28;20031;-77
2023/12/08 02:22:22;;;;;;;204.02;72.15;;;;;;;1.89;100.00;100712.19;4974104;28;20465;-77
2023/12/08 02:24:50;;;;;;;207.02;72.00;;;;;;;1.90;100.00;100700.50;4974174;28;20101;-77
2023/12/08 02:27:21;;;;;;;195.68;72.70;;;;;;;1.89;100.00;100700.94;4973988;28;20031;-77
2023/12/08 02:29:47;;;;;;;216.20;73.38;;;;;;;1.89;100.00;100695.31;4988749;28;20078;-78
2023/12/08 02:32:43;;;;;;;222.02;72.97;;;;;;;1.87;100.00;100695.72;4974454;28;20101;-76
2023/12/08 02:35:10;;;;;;;196.40;75.05;;;;;;;1.88;100.00;100694.50;4974816;28;20501;-76
2023/12/08 02:37:39;;;;;;;200.55;72.47;;;;;;;1.90;100.00;100694.06;4973636;28;20043;-77
2023/12/08 02:40:07;;;;;;;193.48;67.50;;;;;;;1.90;100.00;100685.59;4958114;28;20045;-77
2023/12/08 02:42:54;;;;;;;211.07;74.78;;;;;;;1.89;100.00;100686.84;4973537;28;20158;-76
2023/12/08 02:45:20;;;;;;;206.52;71.88;;;;;;;1.87;100.00;100687.25;4957202;28;20033;-77
2023/12/08 02:47:46;;;;;;;195.05;68.85;;;;;;;1.86;100.00;100670.78;4974890;28;20480;-77
2023/12/08 02:50:13;;;;;;;199.10;67.78;;;;;;;1.89;100.00;100675.56;4974726;28;20097;-76
2023/12/08 02:52:39;;;;;;;201.02;70.13;;;;;;;1.86;100.00;100676.41;4974510;28;20031;-77
2023/12/08 02:55:06;;;;;;;186.13;63.03;;;;;;;1.88;100.00;100680.41;4974681;28;20031;-77
2023/12/08 02:57:32;;;;;;;201.05;69.53;;;;;;;1.86;100.00;100676.41;4974696;28;20026;-76
2023/12/08 02:59:58;;;;;;;186.38;66.30;;;;;;;1.87;100.00;100672.38;4974485;28;20034;-77
2023/12/08 03:02:25;;;;;;;182.18;63.80;;;;;;;1.89;100.00;100664.31;4974242;28;20034;-78
2023/12/08 03:04:52;;;;;;;187.93;65.90;;;;;;;1.85;100.00;100663.53;4974586;28;20022;-77
2023/12/08 03:07:18;;;;;;;178.40;63.90;;;;;;;1.85;100.00;100647.44;4974181;28;20358;-77
2023/12/08 03:09:52;;;;;;;185.45;64.97;;;;;;;1.87;100.00;100655.47;4974383;28;20130;-77
2023/12/08 03:12:19;;;;;;;171.85;62.78;;;;;;;1.89;100.00;100645.38;4974271;28;20050;-76
2023/12/08 03:14:47;;;;;;;178.43;63.28;;;;;;;1.89;100.00;100648.19;4974775;28;20472;-77
2023/12/08 03:17:13;;;;;;;183.00;62.10;;;;;;;1.85;100.00;100652.25;4974626;28;20085;-77
2023/12/08 03:19:42;;;;;;;175.63;60.33;;;;;;;1.83;100.00;100652.72;4974660;28;20113;-78
2023/12/08 03:22:08;;;;;;;162.95;55.38;;;;;;;1.79;100.00;100649.16;4974725;28;20039;-77
2023/12/08 03:24:33;;;;;;;152.88;51.92;;;;;;;1.76;100.00;100649.97;4974742;28;20049;-77
2023/12/08 03:27:00;;;;;;;155.93;51.80;;;;;;;1.75;100.00;100647.63;4974278;28;20479;-77
2023/12/08 03:29:27;;;;;;;148.02;52.35;;;;;;;1.82;100.00;100641.84;4972891;28;20035;-76
2023/12/08 03:31:53;;;;;;;160.57;54.15;;;;;;;1.79;100.00;100645.53;4974197;28;20023;-77
2023/12/08 03:34:18;;;;;;;164.90;52.92;;;;;;;1.78;100.00;100646.75;4972808;28;20071;-77
2023/12/08 03:36:44;;;;;;;154.05;51.97;;;;;;;1.80;100.00;100638.66;4974154;28;20054;-77
2023/12/08 03:39:09;;;;;;;158.80;51.08;;;;;;;1.76;100.00;100635.91;4974184;28;20037;-78
2023/12/08 03:41:36;;;;;;;146.32;51.10;;;;;;;1.79;100.00;100642.72;4989463;28;20046;-78
2023/12/08 03:44:02;;;;;;;157.88;49.95;;;;;;;1.83;100.00;100649.09;4989296;28;20105;-77
2023/12/08 03:46:28;;;;;;;134.18;48.05;;;;;;;1.83;100.00;100640.66;4974180;28;20038;-77
2023/12/08 03:48:54;;;;;;;157.98;52.83;;;;;;;1.86;100.00;100645.41;4974062;28;20086;-77
2023/12/08 03:51:21;;;;;;;149.68;50.92;;;;;;;1.85;100.00;100655.09;4972774;28;20046;-76
2023/12/08 03:53:47;;;;;;;148.75;51.10;;;;;;;1.90;100.00;100651.78;4973376;28;20039;-77
2023/12/08 03:56:15;;;;;;;153.27;51.55;;;;;;;1.90;100.00;100646.16;4972950;28;20451;-77
2023/12/08 03:58:40;;;;;;;156.15;52.72;;;;;;;1.92;100.00;100647.34;4974483;28;20456;-78
2023/12/08 04:01:07;;;;;;;146.95;50.55;;;;;;;1.89;100.00;100639.75;4974045;28;20085;-78
2023/12/08 04:03:33;;;;;;;144.25;50.40;;;;;;;1.92;100.00;100647.34;4973950;28;20077;-76
2023/12/08 04:06:00;;;;;;;150.43;50.35;;;;;;;1.96;100.00;100646.47;4974009;28;20042;-77
2023/12/08 04:08:26;;;;;;;146.18;52.72;;;;;;;1.92;100.00;100638.88;4974241;28;20057;-77
2023/12/08 04:10:53;;;;;;;140.95;49.97;;;;;;;1.94;100.00;100637.66;4973553;28;20061;-76
2023/12/08 04:13:18;;;;;;;139.63;50.38;;;;;;;1.94;100.00;100637.66;4974130;28;20038;-76
2023/12/08 04:15:44;;;;;;;132.43;49.20;;;;;;;1.90;100.00;100630.06;4973930;28;20027;-76
2023/12/08 04:18:11;;;;;;;135.57;47.28;;;;;;;1.87;100.00;100627.28;4973891;28;20030;-77
2023/12/08 04:20:37;;;;;;;123.15;43.17;;;;;;;1.89;100.00;100622.84;4988607;28;20471;-77
2023/12/08 04:23:05;;;;;;;125.38;47.15;;;;;;;1.90;100.00;100623.63;4973672;28;20037;-76
2023/12/08 04:25:31;;;;;;;136.98;48.42;;;;;;;1.92;100.00;100624.00;4973833;28;20027;-76
2023/12/08 04:27:57;;;;;;;123.80;44.92;;;;;;;1.86;100.00;100611.59;4973578;28;20090;-76
2023/12/08 04:30:26;;;;;;;133.88;46.85;;;;;;;1.86;100.00;100611.59;4973365;28;20154;-76
2023/12/08 04:32:52;;;;;;;140.73;47.45;;;;;;;1.81;100.00;100601.63;4973499;28;20031;-77
2023/12/08 04:35:18;;;;;;;121.53;43.95;;;;;;;1.76;100.00;100590.84;4973801;28;20431;-77
2023/12/08 04:37:44;;;;;;;137.68;48.30;;;;;;;1.78;100.00;100608.13;4973724;28;20037;-78
2023/12/08 04:40:10;;;;;;;140.20;48.47;;;;;;;1.69;100.00;100607.06;4974640;28;20031;-76
2023/12/08 04:42:38;;;;;;;138.23;45.33;;;;;;;1.66;100.00;100608.69;4977330;28;20382;-77
2023/12/08 04:45:05;;;;;;;126.68;45.00;;;;;;;1.67;100.00;100615.91;4976925;28;20058;-78
2023/12/08 04:47:31;;;;;;;133.88;45.05;;;;;;;1.60;100.00;100601.16;4976663;28;20033;-77
2023/12/08 04:49:57;;;;;;;142.43;48.67;;;;;;;1.65;100.00;100606.31;4976428;28;20058;-77
2023/12/08 04:52:24;;;;;;;123.90;46.00;;;;;;;1.71;100.00;100608.22;4976490;28;20065;-75
2023/12/08 04:54:50;;;;;;;145.77;46.45;;;;;;;1.73;100.00;100600.16;4977123;28;20120;-76
2023/12/08 04:57:17;;;;;;;139.13;46.63;;;;;;;1.73;100.00;100605.78;4976779;28;20030;-78
2023/12/08 04:59:44;;;;;;;135.57;45.63;;;;;;;1.74;100.00;100601.75;4976751;28;20034;-78
2023/12/08 05:02:10;;;;;;;154.48;48.60;;;;;;;1.74;100.00;100606.56;4976729;28;20046;-76
2023/12/08 05:04:37;;;;;;;156.82;49.33;;;;;;;1.80;100.00;100593.59;4976645;28;20030;-76
2023/12/08 05:07:03;;;;;;;165.35;49.60;;;;;;;1.77;100.00;100602.91;4976530;28;20149;-76
2023/12/08 05:09:29;;;;;;;171.13;47.95;;;;;;;1.77;100.00;100592.44;4975284;28;20440;-78
2023/12/08 05:11:56;;;;;;;197.75;47.38;;;;;;;1.74;100.00;100590.47;4976152;28;20054;-77
2023/12/08 05:14:21;;;;;;;201.20;50.25;;;;;;;1.75;100.00;100596.91;4976341;28;20432;-77
2023/12/08 05:16:48;;;;;;;165.93;45.80;;;;;;;1.72;100.00;100586.47;4991239;28;20033;-77
2023/12/08 05:19:13;;;;;;;170.73;45.85;;;;;;;1.63;100.00;100592.66;4991237;28;20042;-77
2023/12/08 05:21:39;;;;;;;170.70;45.80;;;;;;;1.63;100.00;100594.66;4976553;28;20424;-77
2023/12/08 05:24:06;;;;;;;211.75;46.67;;;;;;;1.57;100.00;100591.53;4991053;28;20038;-75
2023/12/08 05:26:32;;;;;;;186.68;43.78;;;;;;;1.42;100.00;100588.13;4991276;28;20556;-76
2023/12/08 05:28:58;;;;;;;146.57;42.78;;;;;;;1.44;100.00;100593.31;4976265;28;20077;-76
2023/12/08 05:31:27;;;;;;;169.43;45.83;;;;;;;1.35;100.00;100596.66;4976630;28;20018;-78
2023/12/08 05:33:52;;;;;;;188.00;44.70;;;;;;;1.36;100.00;100609.50;4990611;28;20033;-79
2023/12/08 05:36:17;;;;;;;133.88;40.97;;;;;;;1.31;100.00;100614.81;4996231;28;20034;-79
2023/12/08 05:38:44;;;;;;;179.77;43.42;;;;;;;1.24;100.00;100618.53;5014099;28;20070;-80
2023/12/08 05:41:10;;;;;;;139.60;36.65;;;;;;;1.24;100.00;100614.91;5004189;28;20033;-82
2023/12/08 05:43:35;;;;;;;159.77;40.92;;;;;;;1.18;100.00;100625.03;5016090;28;20034;-81
2023/12/08 05:46:02;;;;;;;148.23;39.40;;;;;;;1.20;100.00;100620.59;5017683;28;20033;-81
2023/12/08 05:48:29;;;;;;;127.45;35.72;;;;;;;1.15;100.00;100621.06;5016358;28;20033;-81
2023/12/08 05:50:55;;;;;;;168.55;43.63;;;;;;;1.17;100.00;100612.16;4999600;28;20027;-82
2023/12/08 05:53:21;;;;;;;153.93;45.15;;;;;;;1.08;100.00;100612.69;4977217;28;20484;-79
2023/12/08 05:55:46;;;;;;;147.48;42.20;;;;;;;1.09;100.00;100617.09;4977476;28;20029;-82
2023/12/08 05:58:13;;;;;;;158.82;45.00;;;;;;;1.15;100.00;100623.88;4991362;28;20023;-84
2023/12/08 06:00:41;;;;;;;164.00;40.95;;;;;;;1.08;100.00;100625.94;4976788;28;20031;-84
2023/12/08 06:03:08;;;;;;;196.23;46.35;;;;;;;1.03;100.00;100613.16;4975346;28;20049;-80
2023/12/08 06:05:35;;;;;;;159.63;43.20;;;;;;;0.94;100.00;100608.03;4975928;28;20473;-80
2023/12/08 06:08:00;;;;;;;200.85;46.60;;;;;;;0.85;100.00;100595.69;4990787;28;20027;-80
2023/12/08 06:10:26;;;;;;;207.75;48.22;;;;;;;0.89;100.00;100608.50;4972708;28;20504;-79
2023/12/08 06:12:52;;;;;;;276.10;58.30;;;;;;;0.82;100.00;100604.94;4973507;28;20061;-80
2023/12/08 06:15:18;;;;;;;243.57;54.17;;;;;;;0.80;100.00;100605.38;4975419;28;20034;-79
2023/12/08 06:17:43;;;;;;;222.35;54.17;;;;;;;0.72;100.00;100586.97;4975267;28;20023;-80
2023/12/08 06:20:09;;;;;;;271.13;56.58;;;;;;;0.76;100.00;100601.81;4975241;28;20023;-78
2023/12/08 06:22:38;;;;;;;314.58;65.68;;;;;;;0.78;100.00;100602.19;4975263;28;20130;-76
2023/12/08 06:25:04;;;;;;;303.00;65.00;;;;;;;0.78;100.00;100585.31;4974904;28;20031;-78
2023/12/08 06:27:29;;;;;;;206.55;53.50;;;;;;;0.76;100.00;100584.94;4973680;28;20027;-77
2023/12/08 06:29:55;;;;;;;301.92;65.40;;;;;;;0.76;100.00;100584.16;4975088;28;20030;-83
2023/12/08 06:32:20;;;;;;;240.35;57.05;;;;;;;0.80;100.00;100582.09;4976342;28;20022;-89
2023/12/08 06:34:48;;;;;;;213.48;55.58;;;;;;;0.84;100.00;100577.22;4979779;28;20031;-81
2023/12/08 06:37:14;;;;;;;246.57;57.30;;;;;;;0.85;100.00;100579.63;4975153;28;20487;-80
2023/12/08 06:39:39;;;;;;;245.95;58.38;;;;;;;0.77;100.00;100582.91;5006099;28;20132;-82
2023/12/08 06:42:06;;;;;;;228.68;60.58;;;;;;;0.76;100.00;100576.50;5014096;28;20029;-82
2023/12/08 06:44:31;;;;;;;228.68;53.97;;;;;;;0.82;100.00;100582.44;5014269;28;20144;-81
2023/12/08 06:46:56;;;;;;;181.18;51.30;;;;;;;0.91;100.00;100588.41;5020031;28;20033;-85
2023/12/08 06:49:22;;;;;;;294.77;59.88;;;;;;;0.83;100.00;100579.22;5022292;28;20022;-84
2023/12/08 06:51:47;;;;;;;237.55;57.65;;;;;;;0.88;100.00;100581.56;5025469;28;20037;-82
2023/12/08 06:54:13;;;;;;;249.05;58.63;;;;;;;0.87;100.00;100588.41;5015184;28;20526;-82
2023/12/08 06:56:44;;;;;;;224.82;59.25;;;;;;;0.86;100.00;100586.03;5012973;28;20033;-84
2023/12/08 06:59:10;;;;;;;235.60;57.83;;;;;;;0.90;100.00;100575.53;5013690;28;20034;-81
2023/12/08 07:01:35;;;;;;;228.38;56.30;;;;;;;0.89;100.00;100546.63;5012418;28;20041;-81
2023/12/08 07:04:03;;;;;;;241.27;55.78;;;;;;;0.92;100.00;100551.38;5013234;28;20433;-79
2023/12/08 07:06:29;;;;;;;203.05;55.03;;;;;;;0.91;100.00;100532.13;5013832;28;20049;-79
2023/12/08 07:08:55;;;;;;;247.38;60.30;;;;;;;0.88;100.00;100518.91;5013694;28;20096;-78
2023/12/08 07:11:20;;;;;;;237.77;61.03;;;;;;;0.90;100.00;100536.97;5013591;28;20463;-78
2023/12/08 07:13:46;;;;;;;199.85;53.40;;;;;;;0.87;100.00;100542.59;5013268;28;20022;-78
2023/12/08 07:16:11;;;;;;;230.38;61.65;;;;;;;0.99;100.00;100568.19;5012487;28;20212;-80
2023/12/08 07:18:37;;;;;;;229.32;62.80;;;;;;;1.04;100.00;100566.91;5013399;28;20025;-79
2023/12/08 07:21:06;;;;;;;235.15;59.42;;;;;;;0.89;100.00;100549.44;5013215;28;20018;-79
2023/12/08 07:23:33;;;;;;;235.80;61.10;;;;;;;0.95;100.00;100563.81;5011169;28;20024;-78
2023/12/08 07:25:59;;;;;;;234.40;61.67;;;;;;;0.83;100.00;100553.09;5011082;28;20042;-78
2023/12/08 07:28:24;;;;;;;254.55;64.63;;;;;;;0.94;100.00;100568.66;5011259;28;20026;-78
2023/12/08 07:30:50;;;;;;;220.43;61.42;;;;;;;0.88;100.00;100549.84;5010986;28;20452;-79
2023/12/08 07:33:15;;;;;;;247.32;64.05;;;;;;;0.89;100.00;100557.88;5010956;28;20030;-78
2023/12/08 07:35:41;;;;;;;215.57;60.03;;;;;;;0.76;100.00;100548.38;5011384;28;20037;-79
2023/12/08 07:38:06;;;;;;;231.52;61.40;;;;;;;0.93;100.00;100549.38;4995317;28;20033;-79
2023/12/08 07:40:32;;;;;;;234.85;60.53;;;;;;;0.90;100.00;100555.84;5012060;28;20036;-80
2023/12/08 07:42:57;;;;;;;260.88;66.07;;;;;;;0.93;100.00;100569.06;5013365;28;20026;-79
2023/12/08 07:45:23;;;;;;;250.93;64.03;;;;;;;0.96;100.00;100565.44;5013656;28;20034;-78
2023/12/08 07:47:48;;;;;;;276.98;70.00;;;;;;;0.93;100.00;100561.44;5013117;28;20030;-78
2023/12/08 07:50:14;;;;;;;257.38;66.38;;;;;;;0.93;100.00;100557.81;5011934;28;20033;-80
2023/12/08 07:52:41;;;;;;;264.13;68.70;;;;;;;0.99;100.00;100550.50;5013100;28;20022;-80
2023/12/08 07:55:08;;;;;;;233.20;66.70;;;;;;;1.04;100.00;100547.22;5028331;28;20056;-79
2023/12/08 07:57:34;;;;;;;261.33;67.53;;;;;;;1.11;100.00;100558.38;5013048;28;20034;-80
2023/12/08 07:59:59;;;;;;;263.70;72.63;;;;;;;1.18;100.00;100563.91;5013306;28;20033;-79
2023/12/08 08:02:25;;;;;;;261.92;68.70;;;;;;;1.24;100.00;100538.91;5013053;28;20030;-79
2023/12/08 08:04:50;;;;;;;259.05;69.80;;;;;;;1.42;100.00;100559.16;5011633;28;20478;-79
2023/12/08 08:07:16;;;;;;;250.52;69.50;;;;;;;1.46;100.00;100566.34;4995388;28;20032;-80
2023/12/08 08:09:42;;;;;;;238.95;62.80;;;;;;;1.39;100.00;100555.19;5013203;28;20034;-79
2023/12/08 08:12:09;;;;;;;226.13;61.67;;;;;;;1.35;100.00;100550.84;5027809;28;20180;-80
2023/12/08 08:14:34;;;;;;;236.55;64.18;;;;;;;1.42;100.00;100542.25;5013334;28;20033;-80
2023/12/08 08:17:01;;;;;;;234.35;68.53;;;;;;;1.53;100.00;100553.38;5015630;28;20076;-80
2023/12/08 08:19:27;;;;;;;228.93;63.33;;;;;;;1.46;100.00;100545.81;5016753;28;20092;-80
2023/12/08 08:21:52;;;;;;;216.00;58.55;;;;;;;1.58;100.00;100564.97;5016686;28;20080;-79
2023/12/08 08:24:17;;;;;;;262.25;65.20;;;;;;;1.44;100.00;100553.91;5031916;28;20030;-79
2023/12/08 08:26:43;;;;;;;287.05;71.82;;;;;;;1.43;100.00;100555.94;5016563;28;20434;-78
2023/12/08 08:29:09;;;;;;;299.58;72.85;;;;;;;1.30;100.00;100554.91;5015304;28;20108;-79
2023/12/08 08:31:35;;;;;;;267.45;71.57;;;;;;;1.48;100.00;100583.59;5016498;28;20018;-79
2023/12/08 08:34:00;;;;;;;312.42;75.00;;;;;;;1.42;100.00;100567.59;5016476;28;20052;-81
2023/12/08 08:36:25;;;;;;;272.75;70.45;;;;;;;1.47;100.00;100592.47;5016180;28;20033;-79
2023/12/08 08:38:51;;;;;;;251.65;72.45;;;;;;;1.36;100.00;100574.91;5015205;28;20044;-78
2023/12/08 08:41:18;;;;;;;291.90;75.65;;;;;;;1.38;100.00;100569.69;5016347;28;20032;-79
2023/12/08 08:43:43;;;;;;;268.02;77.22;;;;;;;1.43;100.00;100578.44;5015895;28;20063;-79
2023/12/08 08:46:08;;;;;;;256.52;68.55;;;;;;;1.58;100.00;100579.03;5015922;28;20038;-79
2023/12/08 08:48:34;;;;;;;265.35;69.18;;;;;;;1.54;100.00;100581.13;5016073;28;20356;-79
2023/12/08 08:50:59;;;;;;;226.40;64.00;;;;;;;1.55;100.00;100584.72;5016023;28;20025;-79
2023/12/08 08:53:26;;;;;;;242.63;67.32;;;;;;;1.50;100.00;100574.75;5016451;28;20030;-80
2023/12/08 08:55:52;;;;;;;239.93;64.82;;;;;;;1.51;100.00;100575.53;5015205;28;20036;-79
2023/12/08 08:58:17;;;;;;;227.32;62.00;;;;;;;1.61;100.00;100588.66;5016488;28;20097;-79
2023/12/08 09:00:42;;;;;;;223.27;61.70;;;;;;;1.59;100.00;100571.41;5016221;28;20113;-79
2023/12/08 09:03:08;;;;;;;256.83;68.95;;;;;;;1.73;100.00;100576.81;5016268;28;20060;-80
2023/12/08 09:05:36;;;;;;;248.80;65.45;;;;;;;1.83;100.00;100582.28;5015796;28;20030;-79
2023/12/08 09:08:01;;;;;;;253.63;69.45;;;;;;;1.88;100.00;100581.00;5016196;28;20025;-80
2023/12/08 09:10:27;;;;;;;261.90;71.35;;;;;;;1.80;100.00;100573.88;5016029;28;20108;-80
2023/12/08 09:12:52;;;;;;;271.88;72.85;;;;;;;1.95;100.00;100566.78;5015558;28;20052;-77
2023/12/08 09:15:17;;;;;;;236.18;68.55;;;;;;;1.98;100.00;100549.03;5016226;28;20037;-78
2023/12/08 09:17:43;;;;;;;241.73;65.38;;;;;;;1.91;100.00;100521.78;5031009;28;20042;-80
2023/12/08 09:20:13;;;;;;;244.98;65.22;;;;;;;2.00;100.00;100534.50;5015777;28;20033;-80
2023/12/08 09:22:42;;;;;;;207.48;59.72;;;;;;;2.16;100.00;100546.69;5016059;28;20108;-79
2023/12/08 09:25:08;;;;;;;212.50;60.97;;;;;;;1.99;100.00;100519.63;5016056;28;20049;-79
2023/12/08 09:27:34;;;;;;;204.88;56.25;;;;;;;2.15;100.00;100527.41;5015367;28;20061;-79
2023/12/08 09:29:59;;;;;;;219.93;59.40;;;;;;;2.15;100.00;100504.84;5015586;28;20026;-78
2023/12/08 09:32:25;;;;;;;203.75;59.25;;;;;;;2.25;100.00;100513.09;5015466;28;20030;-79
2023/12/08 09:34:50;;;;;;;203.95;57.28;;;;;;;2.37;100.00;100525.78;5015314;28;20044;-79
2023/12/08 09:37:15;;;;;;;184.02;56.00;;;;;;;2.35;100.00;100517.75;5015446;28;20025;-80
2023/12/08 09:39:41;;;;;;;188.43;55.78;;;;;;;2.31;100.00;100488.84;5016221;28;20328;-80
2023/12/08 09:42:10;;;;;;;177.73;53.10;;;;;;;2.52;100.00;100510.19;5016896;28;20392;-81
2023/12/08 09:44:36;;;;;;;181.13;53.92;;;;;;;2.63;100.00;100515.63;5016605;28;20025;-80
2023/12/08 09:47:06;;;;;;;178.07;53.88;;;;;;;2.64;100.00;100506.72;5016701;28;20036;-79
2023/12/08 09:49:52;;;;;;;166.43;51.45;;;;;;;2.74;100.00;100504.91;5016399;28;20378;-83
2023/12/08 09:52:17;;;;;;;156.75;50.50;;;;;;;2.66;100.00;100500.66;5030810;28;20034;-79
2023/12/08 09:54:43;;;;;;;158.98;50.45;;;;;;;2.58;100.00;100493.56;5016416;28;20451;-82
2023/12/08 09:57:09;;;;;;;167.85;49.80;;;;;;;2.72;100.00;100508.19;5015113;28;20030;-80
2023/12/08 09:59:37;;;;;;;155.45;50.75;;;;;;;2.75;100.00;100507.31;5014482;28;20032;-79
2023/12/08 10:02:03;;;;;;;152.85;47.60;;;;;;;2.68;100.00;100476.44;5014687;28;20025;-80
2023/12/08 10:04:28;;;;;;;139.55;45.20;;;;;;;2.80;100.00;100477.78;5015167;28;20039;-80
2023/12/08 10:07:00;;;;;;;118.57;43.70;;;;;;;2.90;100.00;100490.88;5014943;28;20053;-79
2023/12/08 10:09:29;;;;;;;124.30;43.90;;;;;;;2.95;100.00;100487.53;5014940;28;20025;-79
2023/12/08 10:11:54;;;;;;;127.75;43.13;;;;;;;2.93;100.00;100481.53;5014234;28;20038;-80
2023/12/08 10:14:21;;;;;;;110.72;39.05;;;;;;;2.97;100.00;100464.53;5014558;28;20029;-82
2023/12/08 10:16:47;;;;;;;118.30;41.20;;;;;;;3.10;100.00;100494.47;5014555;28;20026;-80
2023/12/08 10:19:12;;;;;;;113.25;44.97;;;;;;;2.94;100.00;100473.84;5014765;28;20055;-80
2023/12/08 10:21:38;;;;;;;115.18;43.63;;;;;;;2.99;100.00;100487.44;5014716;28;20032;-80
2023/12/08 10:24:04;;;;;;;125.72;44.55;;;;;;;3.03;100.00;100488.19;5014473;28;20026;-80
2023/12/08 10:26:31;;;;;;;130.90;44.22;;;;;;;3.02;100.00;100484.56;5014597;28;20100;-80
2023/12/08 10:28:57;;;;;;;121.55;45.00;;;;;;;2.91;100.00;100483.19;5013015;28;20064;-80
2023/12/08 10:31:23;;;;;;;126.18;45.85;;;;;;;2.72;100.00;100463.03;5014834;28;20026;-80
2023/12/08 10:33:49;;;;;;;124.88;45.40;;;;;;;2.73;100.00;100463.84;5014765;28;20029;-80
2023/12/08 10:36:15;;;;;;;127.53;44.85;;;;;;;2.74;100.00;100465.41;5014705;28;20096;-80
2023/12/08 10:38:41;;;;;;;136.48;47.05;;;;;;;2.78;100.00;100463.31;5012644;28;20140;-79
2023/12/08 10:41:09;;;;;;;122.40;45.00;;;;;;;2.67;100.00;100429.69;5012989;28;20467;-80
2023/12/08 10:43:36;;;;;;;136.20;44.05;;;;;;;2.77;100.00;100450.44;5012668;28;20463;-80
2023/12/08 10:46:03;;;;;;;130.43;45.60;;;;;;;2.65;100.00;100459.56;5014272;28;20026;-79
2023/12/08 10:48:29;;;;;;;126.15;45.30;;;;;;;2.71;100.00;100443.72;5014498;28;20057;-79
2023/12/08 10:50:55;;;;;;;118.10;42.92;;;;;;;2.57;100.00;100410.97;5014141;28;20026;-79
2023/12/08 10:53:21;;;;;;;120.47;43.75;;;;;;;2.76;100.00;100435.53;5014309;28;20049;-81
2023/12/08 10:55:52;;;;;;;135.55;43.28;;;;;;;2.77;100.00;100427.88;5014038;28;20383;-81
2023/12/08 10:58:20;;;;;;;120.65;43.92;;;;;;;2.70;100.00;100431.63;5012665;28;20482;-79
2023/12/08 11:00:46;;;;;;;119.57;44.75;;;;;;;2.64;100.00;100413.63;5013769;28;20113;-81